Time;durP1;ratioP1;P1;durP2;ratioP2;P2;SDS_P1;SDS_P2;PMS_P1;PMS_P2;Temp;Humidity;BMP_temperature;BMP_pressure;BME280_temperature;BME280_humidity;BME280_pressure;Samples;Min_cycle;Max_cycle;Signal;HPM_P1;HPM_P2
2023/06/30 00:03:04;;;;;;;3.63;1.33;;;;;;;-147.53;100.00;57128.34;10521361;28;20044;-81
2023/06/30 00:08:08;;;;;;;4.20;1.42;;;;;;;-147.53;100.00;57128.34;10541301;28;20048;-80
2023/06/30 00:13:10;;;;;;;4.13;1.23;;;;;;;-147.53;100.00;57128.34;10534509;28;20413;-81
2023/06/30 00:18:11;;;;;;;2.80;1.40;;;;;;;-147.53;100.00;57128.34;10522370;28;20060;-80
2023/06/30 00:23:14;;;;;;;2.80;1.60;;;;;;;-147.53;100.00;57128.34;10552113;28;20047;-80
2023/06/30 00:28:15;;;;;;;3.67;1.38;;;;;;;-147.53;100.00;57128.34;10541639;28;20048;-81
2023/06/30 00:33:17;;;;;;;1.13;0.95;;;;;;;-147.53;100.00;57128.34;10535413;28;20070;-81
2023/06/30 00:38:19;;;;;;;2.35;1.23;;;;;;;-147.53;100.00;57128.34;10544022;28;20044;-81
2023/06/30 00:43:22;;;;;;;2.22;1.30;;;;;;;-147.53;100.00;57128.34;10534791;28;20044;-81
2023/06/30 00:48:24;;;;;;;2.80;1.40;;;;;;;-147.53;100.00;57128.34;10529514;28;20032;-81
2023/06/30 00:53:25;;;;;;;3.40;1.80;;;;;;;-147.53;100.00;57128.34;10532489;28;20036;-81
2023/06/30 00:58:27;;;;;;;4.05;1.83;;;;;;;-147.53;100.00;57128.34;10514631;28;20036;-80
2023/06/30 01:03:48;;;;;;;4.75;2.03;;;;;;;-147.53;100.00;57128.34;10532479;28;20050;-80
2023/06/30 01:09:05;;;;;;;5.18;1.77;;;;;;;-147.53;100.00;57128.34;10532818;28;20110;-80
2023/06/30 01:14:09;;;;;;;2.25;1.35;;;;;;;-147.53;100.00;57128.34;10520772;28;20071;-80
2023/06/30 01:19:35;;;;;;;2.63;1.60;;;;;;;-147.53;100.00;57128.34;10533926;28;20078;-81
2023/06/30 01:24:38;;;;;;;3.67;1.55;;;;;;;-147.53;100.00;57128.34;10502386;28;20158;-80
2023/06/30 01:29:42;;;;;;;4.45;1.98;;;;;;;-147.53;100.00;57128.34;10522985;28;20045;-80
2023/06/30 01:34:45;;;;;;;3.08;1.65;;;;;;;-147.53;100.00;57128.34;10515993;28;20055;-80
2023/06/30 01:39:47;;;;;;;3.72;1.67;;;;;;;-147.53;100.00;57128.34;10518051;28;20044;-80
2023/06/30 01:44:49;;;;;;;2.00;1.35;;;;;;;-147.53;100.00;57128.34;10499401;28;20052;-81
2023/06/30 01:49:51;;;;;;;9.95;2.60;;;;;;;-147.53;100.00;57128.34;10533163;28;20525;-80
2023/06/30 01:54:52;;;;;;;3.45;1.70;;;;;;;-147.53;100.00;57128.34;10515641;28;20055;-80
2023/06/30 01:59:54;;;;;;;2.65;1.50;;;;;;;-147.53;100.00;57128.34;10517113;28;20097;-81
2023/06/30 02:04:55;;;;;;;4.38;2.10;;;;;;;-147.53;100.00;57128.34;10533240;28;20040;-80
2023/06/30 02:09:57;;;;;;;7.35;2.03;;;;;;;-147.53;100.00;57128.34;10516062;28;20052;-81
2023/06/30 02:14:59;;;;;;;2.17;1.42;;;;;;;-147.53;100.00;57128.34;10517735;28;20098;-81
2023/06/30 02:20:04;;;;;;;7.60;1.63;;;;;;;-147.53;100.00;57128.34;10501981;28;20044;-81
2023/06/30 02:25:07;;;;;;;8.38;2.08;;;;;;;-147.53;100.00;57128.34;10529408;28;20048;-81
2023/06/30 02:30:09;;;;;;;3.15;1.85;;;;;;;-147.53;100.00;57128.34;10520737;28;20502;-81
2023/06/30 02:35:11;;;;;;;3.13;1.73;;;;;;;-147.53;100.00;57128.34;10540402;28;20033;-81
2023/06/30 02:40:13;;;;;;;4.60;1.95;;;;;;;-147.53;100.00;57128.34;10517037;28;20842;-81
2023/06/30 02:45:14;;;;;;;6.22;1.88;;;;;;;-147.53;100.00;57128.34;10542101;28;20090;-81
2023/06/30 02:50:17;;;;;;;4.97;1.98;;;;;;;-147.53;100.00;57128.34;10508958;28;20577;-81
2023/06/30 02:55:18;;;;;;;2.00;1.23;;;;;;;-147.53;100.00;57128.34;10525860;28;20047;-80
2023/06/30 03:00:20;;;;;;;3.13;1.63;;;;;;;-147.53;100.00;57128.34;10527273;28;20044;-81
2023/06/30 03:05:23;;;;;;;6.15;1.85;;;;;;;-147.53;100.00;57128.34;10516691;28;20060;-81
2023/06/30 03:10:25;;;;;;;5.57;2.08;;;;;;;-147.53;100.00;57128.34;10525931;28;20043;-81
2023/06/30 03:15:27;;;;;;;2.65;1.60;;;;;;;-147.53;100.00;57128.34;10509820;28;20062;-81
2023/06/30 03:20:29;;;;;;;3.33;1.60;;;;;;;-147.53;100.00;57128.34;10525934;28;20422;-80
2023/06/30 03:25:31;;;;;;;3.40;1.60;;;;;;;-147.53;100.00;57128.34;10524593;28;20051;-80
2023/06/30 03:30:32;;;;;;;2.95;1.73;;;;;;;-147.53;100.00;57128.34;10542473;28;20738;-80
2023/06/30 03:35:34;;;;;;;5.72;1.55;;;;;;;-147.53;100.00;57128.34;10523484;28;20051;-79
2023/06/30 03:40:36;;;;;;;5.35;1.75;;;;;;;-147.53;100.00;57128.34;10541285;28;20135;-81
2023/06/30 03:45:38;;;;;;;2.40;1.63;;;;;;;-147.53;100.00;57128.34;10539593;28;20127;-81
2023/06/30 03:50:45;;;;;;;2.13;1.42;;;;;;;-147.53;100.00;57128.34;10524297;28;20048;-80
2023/06/30 03:55:48;;;;;;;2.10;1.25;;;;;;;-147.53;100.00;57128.34;10521824;28;20048;-81
2023/06/30 04:00:50;;;;;;;10.82;1.38;;;;;;;-147.53;100.00;57128.34;10522579;28;20059;-80
2023/06/30 04:05:52;;;;;;;2.65;1.63;;;;;;;-147.53;100.00;57128.34;10538065;28;20044;-80
2023/06/30 04:10:53;;;;;;;4.15;1.65;;;;;;;-147.53;100.00;57128.34;10541986;28;20051;-80
2023/06/30 04:15:55;;;;;;;2.05;1.40;;;;;;;-147.53;100.00;57128.34;10543676;28;20047;-81
2023/06/30 04:20:57;;;;;;;6.82;1.50;;;;;;;-147.53;100.00;57128.34;10542998;28;20101;-81
2023/06/30 04:26:00;;;;;;;6.43;1.70;;;;;;;-147.53;100.00;57128.34;10541541;28;20075;-81
2023/06/30 04:31:04;;;;;;;1.73;1.23;;;;;;;-147.53;100.00;57128.34;10504940;28;20071;-81
2023/06/30 04:36:06;;;;;;;7.47;1.48;;;;;;;-147.53;100.00;57128.34;10534661;28;20051;-81
2023/06/30 04:41:08;;;;;;;1.40;1.00;;;;;;;-147.53;100.00;57128.34;10526748;28;20048;-80
2023/06/30 04:46:10;;;;;;;10.55;1.77;;;;;;;-147.53;100.00;57128.34;10517803;28;20050;-80
2023/06/30 04:51:13;;;;;;;4.97;1.80;;;;;;;-147.53;100.00;57128.34;10540204;28;20048;-81
2023/06/30 04:56:15;;;;;;;6.68;1.77;;;;;;;-147.53;100.00;57128.34;10506153;28;20705;-81
2023/06/30 05:01:20;;;;;;;2.75;1.33;;;;;;;-147.53;100.00;57128.34;10500619;28;20056;-80
2023/06/30 05:06:22;;;;;;;9.48;1.25;;;;;;;-147.53;100.00;57128.34;10500408;28;20051;-80
2023/06/30 05:11:23;;;;;;;3.22;1.33;;;;;;;-147.53;100.00;57128.34;10479043;28;20429;-80
2023/06/30 05:16:25;;;;;;;4.63;2.47;;;;;;;-147.53;100.00;57128.34;10497250;28;20045;-81
2023/06/30 05:21:27;;;;;;;2.17;1.38;;;;;;;-147.53;100.00;57128.34;10501960;28;20055;-80
2023/06/30 05:26:29;;;;;;;2.70;1.45;;;;;;;-147.53;100.00;57128.34;10499861;28;20067;-80
2023/06/30 05:31:30;;;;;;;2.65;1.50;;;;;;;-147.53;100.00;57128.34;10495539;28;20048;-80
2023/06/30 05:36:32;;;;;;;3.97;1.50;;;;;;;-147.53;100.00;57128.34;10478535;28;20155;-80
2023/06/30 05:41:37;;;;;;;2.40;1.08;;;;;;;-147.53;100.00;57128.34;10480905;28;20036;-81
2023/06/30 05:46:39;;;;;;;1.98;1.48;;;;;;;-147.53;100.00;57128.34;10481554;28;20498;-82
2023/06/30 05:51:41;;;;;;;6.90;2.00;;;;;;;-147.53;100.00;57128.34;10502486;28;20048;-78
2023/06/30 05:56:43;;;;;;;2.22;1.05;;;;;;;-147.53;100.00;57128.34;10500341;28;20052;-79
2023/06/30 06:01:44;;;;;;;5.03;1.15;;;;;;;-147.53;100.00;57128.34;10489793;28;20065;-79
2023/06/30 06:06:46;;;;;;;3.08;0.95;;;;;;;-147.53;100.00;57128.34;10488178;28;20053;-79
2023/06/30 06:11:47;;;;;;;4.07;1.38;;;;;;;-147.53;100.00;57128.34;10491275;28;20068;-79
2023/06/30 06:16:49;;;;;;;3.70;0.90;;;;;;;-147.53;100.00;57128.34;10492204;28;20110;-79
2023/06/30 06:21:50;;;;;;;2.38;1.50;;;;;;;-147.53;100.00;57128.34;10496815;28;20048;-79
2023/06/30 06:26:52;;;;;;;3.33;1.58;;;;;;;-147.53;100.00;57128.34;10491752;28;20504;-79
2023/06/30 06:31:53;;;;;;;5.00;1.52;;;;;;;-147.53;100.00;57128.34;10491264;28;20040;-80
2023/06/30 06:36:55;;;;;;;7.28;1.40;;;;;;;-147.53;100.00;57128.34;10491467;28;20059;-80
2023/06/30 06:41:57;;;;;;;2.65;1.35;;;;;;;-147.53;100.00;57128.34;10490136;28;20131;-79
2023/06/30 06:47:36;;;;;;;8.73;1.95;;;;;;;-147.53;100.00;57128.34;10472031;28;20464;-78
2023/06/30 06:52:38;;;;;;;2.47;1.30;;;;;;;-147.53;100.00;57128.34;10492126;28;20094;-78
2023/06/30 06:57:39;;;;;;;3.28;1.50;;;;;;;-147.53;100.00;57128.34;10488517;28;20131;-78
2023/06/30 07:02:41;;;;;;;4.07;1.30;;;;;;;-147.53;100.00;57128.34;10490915;28;20114;-78
2023/06/30 07:07:46;;;;;;;4.28;1.38;;;;;;;-147.53;100.00;57128.34;10476612;28;20683;-79
2023/06/30 07:12:48;;;;;;;3.00;1.17;;;;;;;-147.53;100.00;57128.34;10480339;28;20506;-78
2023/06/30 07:17:50;;;;;;;1.45;0.95;;;;;;;-147.53;100.00;57128.34;10499595;28;20068;-78
2023/06/30 07:22:54;;;;;;;7.20;1.63;;;;;;;-147.53;100.00;57128.34;10501779;28;20072;-77
2023/06/30 07:27:57;;;;;;;1.85;0.95;;;;;;;-147.53;100.00;57128.34;10494822;28;20056;-77
2023/06/30 07:32:58;;;;;;;4.32;0.90;;;;;;;-147.53;100.00;57128.34;10474784;28;20516;-77
2023/06/30 07:38:01;;;;;;;4.30;0.82;;;;;;;-147.53;100.00;57128.34;10472899;28;20049;-76
2023/06/30 07:43:02;;;;;;;2.35;1.05;;;;;;;-147.53;100.00;57128.34;10491405;28;20049;-77
2023/06/30 07:48:04;;;;;;;5.05;1.02;;;;;;;20.67;73.28;101178.63;10490924;28;20609;-76
2023/06/30 07:53:08;;;;;;;3.47;0.90;;;;;;;20.64;72.15;101171.56;10494800;28;20505;-76
2023/06/30 07:58:10;;;;;;;4.00;0.90;;;;;;;20.81;71.38;101175.72;10491987;28;20739;-77
2023/06/30 08:03:11;;;;;;;4.78;1.00;;;;;;;21.26;70.54;101162.38;10485067;28;20135;-77
2023/06/30 08:08:13;;;;;;;4.68;0.70;;;;;;;20.73;69.79;101175.00;10492656;28;20048;-76
2023/06/30 08:13:15;;;;;;;3.90;1.02;;;;;;;20.72;69.63;101170.59;10473580;28;20266;-75
2023/06/30 08:18:17;;;;;;;1.48;0.80;;;;;;;20.55;69.00;101165.53;10490787;28;20041;-76
2023/06/30 08:23:34;;;;;;;1.55;0.90;;;;;;;-147.53;100.00;57128.34;10473039;28;20620;-76
2023/06/30 08:28:36;;;;;;;1.52;0.80;;;;;;;-147.53;100.00;57128.34;10486851;28;20064;-77
2023/06/30 08:33:38;;;;;;;1.33;0.68;;;;;;;-147.53;100.00;57128.34;10476076;28;20071;-76
2023/06/30 08:38:41;;;;;;;3.15;0.95;;;;;;;-147.53;100.00;57128.34;10480172;28;20047;-76
2023/06/30 08:43:44;;;;;;;1.98;0.73;;;;;;;21.32;68.11;101172.91;10479784;28;20609;-77
2023/06/30 08:48:46;;;;;;;1.98;0.80;;;;;;;22.06;65.94;101163.22;10487085;28;20075;-76
2023/06/30 08:53:49;;;;;;;1.08;0.60;;;;;;;21.26;64.90;101159.72;10494326;28;20109;-76
2023/06/30 08:58:51;;;;;;;0.35;0.35;;;;;;;20.52;65.32;101166.47;10458574;28;20071;-76
2023/06/30 09:03:52;;;;;;;0.68;0.55;;;;;;;-147.53;100.00;57128.34;10463367;28;20053;-76
2023/06/30 09:09:09;;;;;;;6.65;0.68;;;;;;;-147.53;100.00;57128.34;10472135;28;20130;-77
2023/06/30 09:14:11;;;;;;;6.53;0.80;;;;;;;-147.53;100.00;57128.34;10457813;28;20072;-76
2023/06/30 09:19:14;;;;;;;4.30;0.80;;;;;;;-147.53;100.00;57128.34;10480574;28;20526;-77
2023/06/30 09:24:16;;;;;;;2.88;0.73;;;;;;;21.08;65.44;101152.16;10482253;28;20131;-78
2023/06/30 09:29:22;;;;;;;0.98;0.63;;;;;;;21.11;63.67;101150.28;10459387;28;20056;-77
2023/06/30 09:34:23;;;;;;;0.40;0.40;;;;;;;21.39;63.04;101151.47;10486086;28;20057;-78
2023/06/30 09:39:25;;;;;;;1.70;0.63;;;;;;;20.49;61.75;101156.78;10472468;28;20115;-79
2023/06/30 09:44:27;;;;;;;1.10;0.52;;;;;;;;;;10478817;28;20769;-79
2023/06/30 09:49:30;;;;;;;3.85;0.60;;;;;;;22.09;61.64;101161.44;10482035;28;20117;-79
2023/06/30 09:54:33;;;;;;;1.05;0.55;;;;;;;21.10;60.06;101166.28;10487098;28;20064;-79
2023/06/30 09:59:46;;;;;;;0.82;0.47;;;;;;;21.10;60.06;101166.28;10472946;28;20044;-79
2023/06/30 10:04:48;;;;;;;0.85;0.52;;;;;;;21.56;60.53;101168.00;10495515;28;20040;-79
2023/06/30 10:09:51;;;;;;;0.40;0.40;;;;;;;22.04;59.79;101161.53;10474685;28;20832;-79
2023/06/30 10:14:53;;;;;;;0.52;0.45;;;;;;;22.39;58.33;101165.13;10523670;28;20268;-79
2023/06/30 10:19:55;;;;;;;0.80;0.55;;;;;;;22.09;57.14;101156.09;10474655;28;20120;-78
2023/06/30 10:25:00;;;;;;;0.80;0.55;;;;;;;22.49;56.95;101155.06;10484790;28;20045;-77
2023/06/30 10:30:03;;;;;;;1.33;0.60;;;;;;;22.87;56.04;101155.81;10493447;28;20098;-77
2023/06/30 10:35:09;;;;;;;2.63;0.82;;;;;;;23.27;55.39;101144.03;10461895;28;20094;-78
2023/06/30 10:40:24;;;;;;;1.73;0.52;;;;;;;23.16;54.09;101138.13;10514179;28;20054;-78
2023/06/30 10:45:27;;;;;;;0.68;0.50;;;;;;;22.52;53.77;101134.53;10497828;28;20036;-77
2023/06/30 10:50:40;;;;;;;1.58;0.55;;;;;;;22.24;53.60;101145.03;10488923;28;20044;-77
2023/06/30 10:55:43;;;;;;;0.77;0.40;;;;;;;22.61;52.92;101130.75;10501812;28;20135;-78
2023/06/30 11:01:01;;;;;;;0.68;0.40;;;;;;;22.69;52.01;101133.19;10505034;28;20151;-78
2023/06/30 11:06:17;;;;;;;2.95;0.70;;;;;;;22.61;53.15;101128.06;10500049;28;20048;-77
2023/06/30 11:11:19;;;;;;;1.75;0.52;;;;;;;23.20;53.04;101126.41;10504348;28;20451;-76
2023/06/30 11:16:28;;;;;;;0.45;0.45;;;;;;;23.50;52.37;101131.75;10490539;28;20136;-76
2023/06/30 11:21:30;;;;;;;2.15;0.63;;;;;;;22.72;52.53;101120.63;10480897;28;20055;-76
2023/06/30 11:26:35;;;;;;;0.70;0.50;;;;;;;21.97;53.69;101131.47;10492804;28;20036;-76
2023/06/30 11:31:37;;;;;;;0.32;0.30;;;;;;;21.93;53.78;101121.78;10501447;28;20050;-76
2023/06/30 11:36:38;;;;;;;1.58;0.55;;;;;;;22.57;53.11;101123.72;10495129;28;20053;-77
2023/06/30 11:41:40;;;;;;;3.13;0.50;;;;;;;22.64;52.39;101109.31;10470475;28;20590;-76
2023/06/30 11:46:42;;;;;;;1.15;0.57;;;;;;;22.69;52.71;101102.03;10501652;28;20135;-77
2023/06/30 11:51:43;;;;;;;1.17;0.60;;;;;;;22.50;52.60;101092.78;10504925;28;20053;-76
2023/06/30 11:56:45;;;;;;;0.85;0.50;;;;;;;22.15;53.91;101091.94;10500546;28;20565;-76
2023/06/30 12:01:46;;;;;;;1.88;0.75;;;;;;;22.61;53.44;101090.72;10501349;28;20064;-76
2023/06/30 12:06:49;;;;;;;0.65;0.45;;;;;;;23.01;51.98;101092.19;10483967;28;20128;-77
2023/06/30 12:11:50;;;;;;;0.55;0.50;;;;;;;22.61;52.93;101098.72;10485845;28;20052;-77
2023/06/30 12:16:53;;;;;;;0.65;0.43;;;;;;;22.32;52.84;101092.38;10502994;28;20032;-78
2023/06/30 12:21:59;;;;;;;1.08;0.60;;;;;;;21.95;53.86;101101.31;10506994;28;20052;-77
2023/06/30 12:27:08;;;;;;;2.30;0.88;;;;;;;21.88;54.71;101089.06;10484022;28;20387;-77
2023/06/30 12:32:13;;;;;;;0.68;0.57;;;;;;;21.92;54.82;101085.41;10503823;28;20070;-77
2023/06/30 12:37:17;;;;;;;0.60;0.60;;;;;;;22.11;54.04;101077.78;10485270;28;20036;-77
2023/06/30 12:42:20;;;;;;;1.08;0.65;;;;;;;22.35;53.10;101078.97;10485416;28;20156;-77
2023/06/30 12:47:21;;;;;;;3.03;0.60;;;;;;;22.80;53.30;101079.50;10503118;28;20032;-77
2023/06/30 12:52:23;;;;;;;1.45;0.80;;;;;;;22.97;52.31;101085.22;10495911;28;20128;-77
2023/06/30 12:57:25;;;;;;;2.13;0.75;;;;;;;22.80;50.86;101074.16;10503258;28;20066;-77
2023/06/30 13:02:27;;;;;;;0.65;0.47;;;;;;;22.92;51.62;101081.81;10486158;28;20050;-77
2023/06/30 13:07:29;;;;;;;1.00;0.63;;;;;;;22.95;51.04;101079.94;10470698;28;20485;-79
2023/06/30 13:12:31;;;;;;;0.82;0.60;;;;;;;22.85;51.06;101073.13;10497083;28;20055;-76
2023/06/30 13:17:33;;;;;;;6.93;1.10;;;;;;;22.74;51.08;101076.09;10501378;28;20260;-75
2023/06/30 13:22:35;;;;;;;2.10;0.68;;;;;;;23.00;50.78;101063.78;10489447;28;20134;-78
2023/06/30 13:27:46;;;;;;;0.50;0.50;;;;;;;23.39;50.25;101068.81;10507211;28;20094;-78
2023/06/30 13:32:48;;;;;;;1.67;0.60;;;;;;;23.31;49.50;101068.19;10501552;28;20055;-78
2023/06/30 13:37:50;;;;;;;2.72;0.65;;;;;;;23.09;49.09;101065.28;10505409;28;20482;-78
2023/06/30 13:42:51;;;;;;;3.65;0.55;;;;;;;23.32;48.61;101061.91;10504786;28;20040;-77
2023/06/30 13:47:53;;;;;;;0.85;0.50;;;;;;;22.61;47.44;101053.34;10506245;28;20111;-78
2023/06/30 13:52:55;;;;;;;1.02;0.45;;;;;;;22.53;49.02;101052.69;10489643;28;20048;-78
2023/06/30 13:57:56;;;;;;;0.45;0.45;;;;;;;22.22;49.89;101051.72;10505717;28;20044;-78
2023/06/30 14:02:58;;;;;;;1.70;0.50;;;;;;;22.51;50.15;101057.19;10506387;28;20128;-78
2023/06/30 14:07:59;;;;;;;6.70;0.68;;;;;;;21.95;49.97;101048.00;10501024;28;20489;-78
2023/06/30 14:13:01;;;;;;;4.30;0.60;;;;;;;21.99;50.86;101046.13;10487540;28;20140;-78
2023/06/30 14:18:03;;;;;;;0.50;0.50;;;;;;;22.66;50.75;101039.88;10489897;28;20068;-78
2023/06/30 14:23:05;;;;;;;1.85;0.73;;;;;;;23.11;49.43;101037.63;10512258;28;20044;-78
2023/06/30 14:28:06;;;;;;;4.97;0.80;;;;;;;22.71;48.98;101043.28;10508193;28;20188;-78
2023/06/30 14:33:08;;;;;;;23.48;14.15;;;;;;;23.04;49.87;101037.84;10514838;28;20072;-78
2023/06/30 14:38:09;;;;;;;3.17;1.25;;;;;;;23.12;48.63;101026.03;10509016;28;20053;-78
2023/06/30 14:43:11;;;;;;;0.55;0.43;;;;;;;22.68;48.72;101030.88;10520210;28;20585;-79
2023/06/30 14:48:13;;;;;;;2.30;1.08;;;;;;;22.73;49.38;101028.97;10519915;28;20308;-77
2023/06/30 14:53:15;;;;;;;1.50;0.50;;;;;;;22.83;49.36;101015.34;10520263;28;20053;-78
2023/06/30 14:58:16;;;;;;;2.03;0.70;;;;;;;22.73;49.04;101018.28;10520496;28;20064;-79
2023/06/30 15:03:18;;;;;;;0.45;0.45;;;;;;;22.70;48.81;101010.38;10517890;28;20503;-78
2023/06/30 15:08:20;;;;;;;1.50;0.50;;;;;;;22.57;49.15;101007.19;10514578;28;20124;-78
2023/06/30 15:13:22;;;;;;;1.95;0.70;;;;;;;22.52;48.40;101005.56;10515623;28;20036;-79
2023/06/30 15:18:23;;;;;;;1.95;0.70;;;;;;;22.30;48.46;101010.63;10504071;28;20063;-80
2023/06/30 15:23:25;;;;;;;0.70;0.60;;;;;;;22.08;47.67;101000.53;10505886;28;20040;-80
2023/06/30 15:28:26;;;;;;;2.05;1.13;;;;;;;21.86;48.34;101002.94;10506505;28;20139;-80
2023/06/30 15:33:28;;;;;;;1.15;0.55;;;;;;;22.00;48.95;100998.09;10522967;28;20048;-79
2023/06/30 15:38:30;;;;;;;2.50;0.80;;;;;;;22.47;48.85;100992.34;10529489;28;20040;-78
2023/06/30 15:43:31;;;;;;;1.27;0.47;;;;;;;22.64;48.85;100993.66;10525643;28;20068;-78
2023/06/30 15:48:33;;;;;;;1.95;0.52;;;;;;;22.18;48.74;100993.19;10527431;28;20044;-77
2023/06/30 15:53:34;;;;;;;0.90;0.60;;;;;;;21.73;49.08;100989.03;10523519;28;20594;-78
2023/06/30 15:58:36;;;;;;;1.23;0.52;;;;;;;21.65;49.89;100983.91;10509949;28;20119;-78
2023/06/30 16:03:38;;;;;;;1.27;0.60;;;;;;;21.62;49.67;100989.31;10510560;28;20040;-79
2023/06/30 16:08:40;;;;;;;1.35;0.43;;;;;;;21.63;50.05;100982.19;10524137;28;20032;-78
2023/06/30 16:13:41;;;;;;;0.70;0.60;;;;;;;22.27;50.78;100984.06;10523561;28;20606;-78
2023/06/30 16:18:44;;;;;;;1.65;0.77;;;;;;;22.64;49.75;100978.53;10528010;28;20135;-77
2023/06/30 16:23:45;;;;;;;0.90;0.47;;;;;;;23.13;48.97;100970.81;10527004;28;20054;-78
2023/06/30 16:28:47;;;;;;;2.90;0.52;;;;;;;23.32;48.48;100971.09;10528655;28;20075;-79
2023/06/30 16:33:49;;;;;;;3.05;0.50;;;;;;;22.78;48.13;100957.63;10528332;28;20054;-78
2023/06/30 16:38:50;;;;;;;3.13;0.68;;;;;;;22.44;48.10;100954.25;10529217;28;20058;-78
2023/06/30 16:43:52;;;;;;;2.70;0.70;;;;;;;22.33;48.40;100941.22;10509877;28;20059;-77
2023/06/30 16:48:54;;;;;;;0.52;0.40;;;;;;;22.25;48.76;100938.75;10495672;28;20048;-78
2023/06/30 16:53:55;;;;;;;1.85;0.60;;;;;;;22.18;49.05;100926.50;10509667;28;20071;-79
2023/06/30 16:58:58;;;;;;;2.20;0.88;;;;;;;22.19;49.14;100920.25;10511512;28;20064;-78
2023/06/30 17:04:00;;;;;;;1.92;0.82;;;;;;;22.05;48.68;100916.19;10528347;28;20070;-78
2023/06/30 17:09:02;;;;;;;2.40;0.80;;;;;;;22.13;48.52;100907.97;10516095;28;20488;-80
2023/06/30 17:14:03;;;;;;;0.57;0.57;;;;;;;22.13;49.04;100920.41;10492751;28;20071;-79
2023/06/30 17:19:05;;;;;;;1.80;0.70;;;;;;;21.91;48.89;100913.03;10521157;28;20079;-80
2023/06/30 17:24:07;;;;;;;1.40;0.80;;;;;;;21.60;50.00;100908.53;10509263;28;20426;-81
2023/06/30 17:29:09;;;;;;;1.27;0.63;;;;;;;21.43;50.58;100905.44;10513044;28;20541;-80
2023/06/30 17:34:10;;;;;;;1.15;0.70;;;;;;;21.32;50.66;100903.91;10499075;28;20072;-79
2023/06/30 17:39:12;;;;;;;1.38;0.68;;;;;;;21.31;51.49;100896.84;10504511;28;20103;-79
2023/06/30 17:44:14;;;;;;;1.58;0.82;;;;;;;21.18;51.23;100890.06;10521330;28;20422;-78
2023/06/30 17:49:25;;;;;;;1.60;0.80;;;;;;;21.18;51.23;100890.06;10500830;28;20104;-78
2023/06/30 17:54:28;;;;;;;0.40;0.40;;;;;;;20.89;51.78;100894.34;10461909;28;20045;-78
2023/06/30 17:59:30;;;;;;;0.85;0.52;;;;;;;20.84;51.35;100893.59;10517926;28;20549;-78
2023/06/30 18:04:32;;;;;;;5.35;0.70;;;;;;;20.84;51.57;100881.16;10519900;28;20064;-79
2023/06/30 18:09:40;;;;;;;1.63;0.70;;;;;;;20.78;52.05;100881.28;10495566;28;20063;-78
2023/06/30 18:14:42;;;;;;;0.88;0.50;;;;;;;20.78;52.59;100872.44;10519706;28;20072;-78
2023/06/30 18:19:44;;;;;;;2.33;0.85;;;;;;;20.77;52.83;100874.22;10520069;28;20127;-78
2023/06/30 18:24:46;;;;;;;2.47;0.77;;;;;;;20.74;52.91;100873.44;10515964;28;20091;-79
2023/06/30 18:29:47;;;;;;;0.70;0.60;;;;;;;20.66;52.79;100877.13;10505267;28;20573;-79
2023/06/30 18:34:49;;;;;;;1.98;0.90;;;;;;;20.54;52.68;100877.38;10509684;28;20048;-78
2023/06/30 18:39:50;;;;;;;1.30;0.60;;;;;;;20.55;53.63;100868.50;10496523;28;20129;-78
2023/06/30 18:44:52;;;;;;;3.13;1.20;;;;;;;20.49;54.10;100865.97;10502367;28;20135;-78
2023/06/30 18:49:54;;;;;;;1.38;0.73;;;;;;;20.45;53.71;100856.34;10486147;28;20159;-78
2023/06/30 18:54:56;;;;;;;1.65;0.80;;;;;;;-147.53;100.00;57128.34;10522541;28;20044;-84
2023/06/30 18:59:57;;;;;;;1.75;0.60;;;;;;;20.04;55.46;100855.44;10506522;28;20060;-78
2023/06/30 19:04:59;;;;;;;0.80;0.70;;;;;;;19.94;55.97;100852.97;10518054;28;20159;-78
2023/06/30 19:10:01;;;;;;;1.42;0.75;;;;;;;19.89;56.93;100859.28;10518105;28;20054;-78
2023/06/30 19:15:03;;;;;;;2.20;0.70;;;;;;;19.80;57.83;100852.38;10493854;28;20040;-78
2023/06/30 19:20:05;;;;;;;4.28;0.80;;;;;;;19.72;58.31;100848.97;10515631;28;20052;-79
2023/06/30 19:25:07;;;;;;;3.33;0.70;;;;;;;19.67;58.65;100845.53;10515707;28;20077;-80
2023/06/30 19:30:09;;;;;;;0.93;0.65;;;;;;;19.54;58.55;100840.44;10498214;28;20051;-79
2023/06/30 19:35:10;;;;;;;1.27;0.75;;;;;;;19.41;58.93;100838.94;10508274;28;20136;-78
2023/06/30 19:40:12;;;;;;;2.35;0.95;;;;;;;19.33;59.43;100836.41;10520523;28;20465;-78
2023/06/30 19:45:14;;;;;;;2.20;0.93;;;;;;;19.27;60.08;100846.28;10517615;28;20048;-78
2023/06/30 19:50:16;;;;;;;1.90;0.90;;;;;;;19.16;60.44;100834.09;10504215;28;20040;-79
2023/06/30 19:55:18;;;;;;;2.15;1.02;;;;;;;19.03;61.26;100840.50;10505183;28;20124;-78
2023/06/30 20:00:20;;;;;;;1.00;0.80;;;;;;;18.95;61.86;100845.94;10512879;28;20036;-77
2023/06/30 20:05:22;;;;;;;1.40;0.70;;;;;;;18.80;100.00;100839.06;10519160;28;20060;-77
2023/06/30 20:10:24;;;;;;;0.82;0.50;;;;;;;-147.53;100.00;57128.34;10494980;28;20123;-77
2023/06/30 20:15:25;;;;;;;1.25;0.95;;;;;;;-147.53;100.00;57128.34;10492845;28;20078;-77
2023/06/30 20:20:27;;;;;;;2.83;1.08;;;;;;;-147.53;100.00;57128.34;10513367;28;20119;-78
2023/06/30 20:25:29;;;;;;;2.15;1.10;;;;;;;-147.53;100.00;57128.34;10497417;28;20098;-77
2023/06/30 20:30:31;;;;;;;3.85;1.17;;;;;;;-147.53;100.00;57128.34;10517547;28;20131;-77
2023/06/30 20:35:33;;;;;;;1.15;0.90;;;;;;;-147.53;100.00;57128.34;10499296;28;20089;-76
2023/06/30 20:40:34;;;;;;;4.88;0.80;;;;;;;-147.53;100.00;57128.34;10518135;28;20052;-77
2023/06/30 20:45:36;;;;;;;1.90;0.80;;;;;;;-147.53;100.00;57128.34;10509311;28;20044;-77
2023/06/30 20:50:38;;;;;;;1.67;1.00;;;;;;;-147.53;100.00;57128.34;10490924;28;20037;-77
2023/06/30 20:55:40;;;;;;;2.53;1.10;;;;;;;-147.53;100.00;57128.34;10510395;28;20054;-76
2023/06/30 21:00:41;;;;;;;3.65;1.08;;;;;;;-147.53;100.00;57128.34;10501559;28;20119;-77
2023/06/30 21:05:45;;;;;;;3.30;1.30;;;;;;;-147.53;100.00;57128.34;10519615;28;20572;-76
2023/06/30 21:10:46;;;;;;;6.47;1.27;;;;;;;-147.53;100.00;57128.34;10517990;28;20466;-76
2023/06/30 21:15:48;;;;;;;3.50;1.67;;;;;;;-147.53;100.00;57128.34;10472215;28;20070;-76
2023/06/30 21:20:50;;;;;;;3.38;1.40;;;;;;;-147.53;100.00;57128.34;10486374;28;20059;-76
2023/06/30 21:25:52;;;;;;;2.55;1.30;;;;;;;-147.53;100.00;57128.34;10518765;28;20210;-76
2023/06/30 21:30:57;;;;;;;2.03;1.30;;;;;;;-147.53;100.00;57128.34;10508034;28;20048;-77
2023/06/30 21:36:00;;;;;;;4.82;1.65;;;;;;;-147.53;100.00;57128.34;10475002;28;20057;-76
2023/06/30 21:41:02;;;;;;;2.72;1.30;;;;;;;-147.53;100.00;57128.34;10473246;28;20048;-75
2023/06/30 21:46:13;;;;;;;2.35;1.38;;;;;;;-147.53;100.00;57128.34;10499509;28;20048;-76
2023/06/30 21:51:15;;;;;;;4.13;2.17;;;;;;;-147.53;100.00;57128.34;10520063;28;20865;-76
2023/06/30 21:56:17;;;;;;;3.85;1.90;;;;;;;-147.53;100.00;57128.34;10520902;28;20040;-76
2023/06/30 22:01:18;;;;;;;3.38;1.90;;;;;;;-147.53;100.00;57128.34;10486904;28;20040;-77
2023/06/30 22:06:26;;;;;;;3.03;1.45;;;;;;;-147.53;100.00;57128.34;10517053;28;20101;-76
2023/06/30 22:11:27;;;;;;;2.33;1.45;;;;;;;-147.53;100.00;57128.34;10521470;28;20097;-77
2023/06/30 22:16:29;;;;;;;4.22;1.58;;;;;;;-147.53;100.00;57128.34;10494778;28;20113;-76
2023/06/30 22:21:30;;;;;;;3.00;1.38;;;;;;;-147.53;100.00;57128.34;10516976;28;20040;-76
2023/06/30 22:26:32;;;;;;;3.03;1.00;;;;;;;-147.53;100.00;57128.34;10492408;28;20040;-76
2023/06/30 22:31:34;;;;;;;1.38;1.02;;;;;;;-147.53;100.00;57128.34;10502228;28;20497;-76
2023/06/30 22:36:35;;;;;;;2.15;1.05;;;;;;;-147.53;100.00;57128.34;10513982;28;20050;-76
2023/06/30 22:41:37;;;;;;;2.80;1.40;;;;;;;-147.53;100.00;57128.34;10505173;28;20040;-76
2023/06/30 22:46:38;;;;;;;2.53;1.30;;;;;;;-147.53;100.00;57128.34;10483169;28;20050;-76
2023/06/30 22:51:40;;;;;;;1.92;1.08;;;;;;;-147.53;100.00;57128.34;10493423;28;20094;-76
2023/06/30 22:56:41;;;;;;;1.95;1.00;;;;;;;-147.53;100.00;57128.34;10489069;28;20525;-77